Time;durP1;ratioP1;P1;durP2;ratioP2;P2;SDS_P1;SDS_P2;PMS_P1;PMS_P2;Temp;Humidity;BMP_temperature;BMP_pressure;BME280_temperature;BME280_humidity;BME280_pressure;Samples;Min_cycle;Max_cycle;Signal;HPM_P1;HPM_P2
2023/10/25 00:02:19;;;;;;;;;2.67;2.00;;;;;16.89;100.00;99649.22;4979303;28;45483;-63
2023/10/25 00:04:45;;;;;;;;;1.00;1.00;;;;;16.85;100.00;99651.13;4976453;28;48124;-64
2023/10/25 00:07:10;;;;;;;;;2.00;2.00;;;;;16.86;100.00;99646.66;4979429;28;45458;-67
2023/10/25 00:09:35;;;;;;;;;2.00;2.00;;;;;16.86;100.00;99646.66;4978902;28;57848;-66
2023/10/25 00:12:01;;;;;;;;;3.67;2.67;;;;;16.86;100.00;99644.00;4978894;28;61370;-66
2023/10/25 00:14:27;;;;;;;;;5.00;1.00;;;;;16.83;100.00;99628.97;4979495;28;46734;-65
2023/10/25 00:16:52;;;;;;;;;2.00;2.00;;;;;16.83;100.00;99630.75;4978292;28;45412;-64
2023/10/25 00:19:18;;;;;;;;;3.00;1.67;;;;;16.77;100.00;99637.16;4979374;28;45360;-63
2023/10/25 00:21:43;;;;;;;;;3.33;1.00;;;;;16.73;100.00;99631.09;4979338;28;45323;-66
2023/10/25 00:24:09;;;;;;;;;1.00;1.00;;;;;16.71;100.00;99632.03;4977998;28;68859;-64
2023/10/25 00:26:34;;;;;;;;;3.00;1.67;;;;;16.70;100.00;99633.81;4979053;28;45388;-66
2023/10/25 00:28:59;;;;;;;;;2.00;2.00;;;;;16.70;100.00;99632.94;4979029;28;52944;-64
2023/10/25 00:31:25;;;;;;;;;1.00;1.00;;;;;16.69;100.00;99637.41;4978424;28;60893;-64
2023/10/25 00:33:51;;;;;;;;;1.33;1.33;;;;;16.68;100.00;99641.00;4978961;28;46853;-65
2023/10/25 00:36:16;;;;;;;;;1.00;1.00;;;;;16.69;100.00;99647.19;4979251;28;45419;-64
2023/10/25 00:38:42;;;;;;;;;2.00;2.00;;;;;16.67;100.00;99635.69;4983182;28;45340;-66
2023/10/25 00:41:07;;;;;;;;;5.67;1.00;;;;;16.62;100.00;99633.19;4979068;28;45364;-65
2023/10/25 00:43:33;;;;;;;;;4.00;2.00;;;;;16.60;100.00;99620.84;4977836;28;69707;-64
2023/10/25 00:46:19;;;;;;;;;1.33;1.33;;;;;16.58;100.00;99615.56;4979371;28;45716;-66
2023/10/25 00:48:46;;;;;;;;;2.00;2.00;;;;;16.61;100.00;99617.25;4978861;28;45278;-66
2023/10/25 00:51:13;;;;;;;;;2.00;2.00;;;;;16.59;100.00;99606.63;4978787;28;45457;-65
2023/10/25 00:53:40;;;;;;;;;2.00;2.00;;;;;16.57;100.00;99600.50;4978364;28;46193;-64
2023/10/25 00:56:08;;;;;;;;;3.00;2.00;;;;;16.56;100.00;99597.88;4978539;28;45434;-64
2023/10/25 00:58:33;;;;;;;;;3.00;2.00;;;;;16.56;100.00;99585.41;4977730;28;45366;-65
2023/10/25 01:01:00;;;;;;;;;2.33;1.00;;;;;16.55;100.00;99583.66;4978572;28;45657;-64
2023/10/25 01:03:25;;;;;;;;;2.67;2.00;;;;;16.54;100.00;99575.75;4978717;28;47102;-64
2023/10/25 01:05:51;;;;;;;;;1.00;1.00;;;;;16.54;100.00;99573.06;4977028;28;45331;-64
2023/10/25 01:08:20;;;;;;;;;1.00;1.00;;;;;16.53;100.00;99566.00;4961291;28;45476;-64
2023/10/25 01:10:52;;;;;;;;;1.00;1.00;;;;;16.52;100.00;99557.16;4978838;28;45490;-65
2023/10/25 01:13:18;;;;;;;;;1.00;1.00;;;;;16.48;100.00;99551.03;4977419;28;47400;-63
2023/10/25 01:15:43;;;;;;;;;5.00;2.00;;;;;16.44;100.00;99548.53;4978530;28;45365;-64
2023/10/25 01:18:09;;;;;;;;;1.00;1.00;;;;;16.41;100.00;99544.19;4977587;28;62424;-66
2023/10/25 01:20:35;;;;;;;;;1.33;1.33;;;;;16.41;100.00;99541.53;4978691;28;45224;-63
2023/10/25 01:23:00;;;;;;;;;2.33;1.00;;;;;16.47;100.00;99532.44;4978260;28;45468;-65
2023/10/25 01:25:25;;;;;;;;;2.00;0.00;;;;;16.38;100.00;99522.97;4978071;28;45453;-63
2023/10/25 01:27:51;;;;;;;;;0.00;0.00;;;;;16.37;100.00;99513.22;4977749;28;57268;-64
2023/10/25 01:30:17;;;;;;;;;1.00;1.00;;;;;16.36;100.00;99492.84;4977989;28;45232;-66
2023/10/25 01:32:42;;;;;;;;;2.00;1.00;;;;;16.33;100.00;99484.09;4978073;28;56935;-64
2023/10/25 01:35:08;;;;;;;;;1.00;1.00;;;;;16.32;100.00;99471.69;4977536;28;69228;-66
2023/10/25 01:37:33;;;;;;;;;3.33;1.00;;;;;16.33;100.00;99468.97;4978024;28;45584;-64
2023/10/25 01:39:59;;;;;;;;;1.00;1.00;;;;;16.29;100.00;99459.34;4978184;28;45657;-65
2023/10/25 01:42:24;;;;;;;;;4.00;1.00;;;;;16.29;100.00;99458.47;4976948;28;66273;-65
2023/10/25 01:44:49;;;;;;;;;1.00;1.00;;;;;16.31;100.00;99449.50;4978470;28;45413;-63
2023/10/25 01:47:15;;;;;;;;;2.00;0.00;;;;;16.29;100.00;99439.81;4977541;28;64250;-64
2023/10/25 01:49:41;;;;;;;;;2.00;1.00;;;;;16.28;100.00;99456.72;4977115;28;63538;-66
2023/10/25 01:52:07;;;;;;;;;1.00;1.00;;;;;16.29;100.00;99438.03;4977900;28;46629;-65
2023/10/25 01:54:33;;;;;;;;;2.00;1.00;;;;;16.27;100.00;99426.56;4978070;28;45489;-65
2023/10/25 01:56:58;;;;;;;;;1.67;1.67;;;;;16.27;100.00;99418.56;4977873;28;45215;-65
2023/10/25 01:59:24;;;;;;;;;2.67;2.00;;;;;16.22;100.00;99413.41;4977464;28;58148;-64
2023/10/25 02:01:49;;;;;;;;;1.00;1.00;;;;;16.27;100.00;99413.25;4976518;28;66156;-65
2023/10/25 02:04:14;;;;;;;;;1.00;1.00;;;;;16.30;100.00;99404.25;4977133;28;67814;-66
2023/10/25 02:06:40;;;;;;;;;1.00;1.00;;;;;16.31;100.00;99395.38;4976135;28;45598;-66
2023/10/25 02:09:06;;;;;;;;;1.00;1.00;;;;;16.32;100.00;99397.09;4976606;28;45437;-66
2023/10/25 02:11:31;;;;;;;;;2.00;2.00;;;;;16.28;100.00;99393.66;4977429;28;46542;-65
2023/10/25 02:13:57;;;;;;;;;3.00;1.00;;;;;16.32;100.00;99376.66;4976751;28;67466;-65
2023/10/25 02:16:23;;;;;;;;;4.00;1.00;;;;;16.30;100.00;99372.31;4977504;28;45476;-65
2023/10/25 02:18:48;;;;;;;;;2.33;2.00;;;;;16.29;100.00;99363.44;4978015;28;45291;-67
2023/10/25 02:21:14;;;;;;;;;1.00;1.00;;;;;16.30;100.00;99362.53;4976596;28;46765;-67
2023/10/25 02:23:40;;;;;;;;;1.00;1.00;;;;;16.30;100.00;99351.88;4975533;28;50984;-66
2023/10/25 02:26:05;;;;;;;;;1.00;1.00;;;;;16.35;100.00;99360.59;4976642;28;45328;-64
2023/10/25 02:28:30;;;;;;;;;1.00;1.00;;;;;16.41;100.00;99346.16;4977439;28;45648;-65
2023/10/25 02:30:56;;;;;;;;;2.00;0.67;;;;;16.41;100.00;99330.19;4976720;28;61240;-68
2023/10/25 02:33:21;;;;;;;;;1.00;1.00;;;;;16.41;100.00;99325.72;4974160;28;66565;-65
2023/10/25 02:35:46;;;;;;;;;1.00;1.00;;;;;16.38;100.00;99315.16;4976637;28;66654;-67
2023/10/25 02:38:12;;;;;;;;;2.00;1.00;;;;;16.35;100.00;99299.31;4976507;28;50898;-65
2023/10/25 02:40:37;;;;;;;;;1.00;0.00;;;;;16.37;100.00;99285.94;4976405;28;60243;-64
2023/10/25 02:43:02;;;;;;;;;1.00;1.00;;;;;16.31;100.00;99279.03;4992282;28;45209;-65
2023/10/25 02:45:28;;;;;;;;;0.00;0.00;;;;;16.31;100.00;99279.03;4976299;28;62898;-66
2023/10/25 02:47:57;;;;;;;;;1.00;1.00;;;;;16.34;100.00;99283.38;4977317;28;45567;-66
2023/10/25 02:50:22;;;;;;;;;0.00;0.00;;;;;16.32;100.00;99270.13;4976777;28;46954;-66
2023/10/25 02:52:48;;;;;;;;;1.00;1.00;;;;;16.32;100.00;99259.47;4976939;28;45460;-65
2023/10/25 02:55:15;;;;;;;;;0.00;0.00;;;;;16.35;100.00;99261.13;4975709;28;45418;-66
2023/10/25 02:57:41;;;;;;;;;1.00;1.00;;;;;16.38;100.00;99255.69;4977382;28;45514;-67
2023/10/25 03:00:07;;;;;;;;;1.00;1.00;;;;;16.42;100.00;99257.31;4976721;28;45769;-66
2023/10/25 03:02:32;;;;;;;;;2.00;2.00;;;;;16.43;100.00;99256.41;4977071;28;45302;-65
2023/10/25 03:05:00;;;;;;;;;1.33;1.33;;;;;16.44;100.00;99247.47;4976245;28;65673;-68
2023/10/25 03:07:26;;;;;;;;;3.00;1.00;;;;;16.44;100.00;99239.47;4975816;28;59572;-65
2023/10/25 03:09:51;;;;;;;;;1.00;1.00;;;;;16.48;100.00;99233.09;4976113;28;72050;-65
2023/10/25 03:12:16;;;;;;;;;1.00;1.00;;;;;16.46;100.00;99232.31;4976128;28;66695;-65
2023/10/25 03:14:42;;;;;;;;;1.00;1.00;;;;;16.50;100.00;99232.09;4975824;28;62166;-66
2023/10/25 03:17:07;;;;;;;;;2.00;1.00;;;;;16.50;100.00;99218.78;4976990;28;45600;-67
2023/10/25 03:19:33;;;;;;;;;1.00;1.00;;;;;16.50;100.00;99209.94;4975572;28;70288;-65
2023/10/25 03:21:58;;;;;;;;;1.00;1.00;;;;;16.50;100.00;99223.25;4974308;28;68001;-65
2023/10/25 03:24:24;;;;;;;;;1.00;1.00;;;;;16.48;100.00;99217.13;4976491;28;45384;-65
2023/10/25 03:26:49;;;;;;;;;1.00;1.00;;;;;16.45;100.00;99211.91;4976465;28;50237;-68
2023/10/25 03:29:14;;;;;;;;;2.67;1.00;;;;;16.44;100.00;99202.19;4975470;28;65926;-68
2023/10/25 03:31:40;;;;;;;;;6.33;2.67;;;;;16.45;100.00;99195.91;4977753;28;56653;-66
2023/10/25 03:34:05;;;;;;;;;3.00;2.00;;;;;16.46;100.00;99190.56;4978815;28;45371;-68
2023/10/25 03:36:30;;;;;;;;;2.00;1.00;;;;;16.43;100.00;99182.66;4975474;28;45533;-65
2023/10/25 03:38:56;;;;;;;;;2.00;2.00;;;;;16.42;100.00;99183.59;4975176;28;68960;-67
2023/10/25 03:41:21;;;;;;;;;2.00;2.00;;;;;16.41;100.00;99181.88;4974821;28;45494;-65
2023/10/25 03:43:46;;;;;;;;;2.00;2.00;;;;;16.41;100.00;99183.66;4975717;28;57941;-66
2023/10/25 03:46:12;;;;;;;;;1.00;1.00;;;;;16.40;100.00;99171.25;4976081;28;56765;-65
2023/10/25 03:48:38;;;;;;;;;1.67;1.67;;;;;16.40;100.00;99156.13;4975421;28;60620;-66
2023/10/25 03:51:04;;;;;;;;;3.00;1.00;;;;;16.42;100.00;99150.75;4976382;28;45451;-66
2023/10/25 03:53:30;;;;;;;;;2.33;1.33;;;;;16.40;100.00;99142.81;4976376;28;45185;-66
2023/10/25 03:55:56;;;;;;;;;3.00;0.33;;;;;16.40;100.00;99155.28;4975624;28;60059;-64
2023/10/25 03:58:22;;;;;;;;;3.67;1.00;;;;;16.40;100.00;99142.81;4976090;28;45772;-66
2023/10/25 04:00:48;;;;;;;;;3.00;2.00;;;;;16.40;100.00;99133.97;4975652;28;45568;-66
2023/10/25 04:03:14;;;;;;;;;2.33;1.00;;;;;16.40;100.00;99140.16;4976118;28;45516;-66
2023/10/25 04:05:39;;;;;;;;;2.00;2.00;;;;;16.41;100.00;99131.25;4976235;28;45550;-66
2023/10/25 04:08:04;;;;;;;;;1.00;1.00;;;;;16.40;100.00;99139.28;4974921;28;68256;-65
2023/10/25 04:10:30;;;;;;;;;4.00;1.00;;;;;16.37;100.00;99123.44;4975564;28;56072;-67
2023/10/25 04:12:55;;;;;;;;;2.33;2.00;;;;;16.37;100.00;99123.44;4975542;28;46225;-67
2023/10/25 04:15:21;;;;;;;;;1.00;1.00;;;;;16.38;100.00;99118.03;4975049;28;45548;-66
2023/10/25 04:17:46;;;;;;;;;2.00;2.00;;;;;16.40;100.00;99125.97;4975989;28;49857;-66
2023/10/25 04:20:11;;;;;;;;;1.00;1.00;;;;;16.35;100.00;99107.53;4974977;28;61859;-66
2023/10/25 04:22:37;;;;;;;;;0.67;0.67;;;;;16.37;100.00;99104.78;4976115;28;45360;-65
2023/10/25 04:25:03;;;;;;;;;1.00;1.00;;;;;16.41;100.00;99104.63;4974603;28;45450;-66
2023/10/25 04:27:29;;;;;;;;;1.33;1.00;;;;;16.42;100.00;99110.81;4975880;28;46691;-65
2023/10/25 04:29:55;;;;;;;;;1.00;1.00;;;;;16.41;100.00;99101.09;4974619;28;45507;-67
2023/10/25 04:32:21;;;;;;;;;1.33;1.33;;;;;16.37;100.00;99091.47;4977429;28;45224;-68
2023/10/25 04:34:46;;;;;;;;;1.00;1.00;;;;;16.36;100.00;99093.28;4975858;28;45526;-65
2023/10/25 04:37:11;;;;;;;;;2.67;2.67;;;;;16.40;100.00;99086.88;4974304;28;69120;-66
2023/10/25 04:39:36;;;;;;;;;1.33;1.33;;;;;16.40;100.00;99083.34;4974783;28;66740;-65
2023/10/25 04:42:02;;;;;;;;;1.00;1.00;;;;;16.42;100.00;99085.03;4975587;28;45447;-68
2023/10/25 04:44:27;;;;;;;;;1.00;1.00;;;;;16.42;100.00;99079.72;4975648;28;45173;-65
2023/10/25 04:46:53;;;;;;;;;2.00;2.00;;;;;16.54;100.00;99081.00;4975273;28;48499;-65
2023/10/25 04:49:18;;;;;;;;;1.00;1.00;;;;;16.51;100.00;99070.44;4977869;28;61051;-65
2023/10/25 04:51:43;;;;;;;;;4.33;2.00;;;;;16.53;100.00;99075.72;4978133;28;63042;-68
2023/10/25 04:54:09;;;;;;;;;1.00;1.00;;;;;16.54;100.00;99075.66;4978084;28;56008;-68
2023/10/25 04:56:34;;;;;;;;;3.00;1.67;;;;;16.55;100.00;99068.53;4978705;28;46746;-67
2023/10/25 04:59:00;;;;;;;;;2.00;1.00;;;;;16.55;100.00;99064.06;4977874;28;66478;-67
2023/10/25 05:01:25;;;;;;;;;2.00;2.00;;;;;16.60;100.00;99074.53;4978309;28;60946;-65
2023/10/25 05:03:51;;;;;;;;;1.00;1.00;;;;;16.60;100.00;99070.06;4977853;28;58455;-66
2023/10/25 05:06:16;;;;;;;;;0.00;0.00;;;;;16.60;100.00;99072.75;4978707;28;46208;-68
2023/10/25 05:08:42;;;;;;;;;1.00;1.00;;;;;16.59;100.00;99064.81;4974515;28;45378;-67
2023/10/25 05:11:08;;;;;;;;;1.00;1.00;;;;;16.58;100.00;99065.75;4977244;28;45228;-65
2023/10/25 05:13:33;;;;;;;;;1.00;1.00;;;;;16.58;100.00;99074.63;4979269;28;45146;-65
2023/10/25 05:16:00;;;;;;;;;1.67;0.67;;;;;16.62;100.00;99073.56;4977755;28;45966;-68
2023/10/25 05:18:26;;;;;;;;;0.00;0.00;;;;;16.62;100.00;99057.56;4978574;28;45526;-67
2023/10/25 05:21:01;;;;;;;;;2.00;0.67;;;;;16.65;100.00;99062.75;4977770;28;45490;-67
2023/10/25 05:23:31;;;;;;;;;1.00;1.00;;;;;16.68;100.00;99065.31;4977154;28;45399;-67
2023/10/25 05:25:59;;;;;;;;;1.00;1.00;;;;;16.70;100.00;99060.75;4993089;28;46683;-65
2023/10/25 05:28:25;;;;;;;;;0.00;0.00;;;;;16.72;100.00;99055.38;4978149;28;45482;-66
2023/10/25 05:30:53;;;;;;;;;3.00;1.00;;;;;16.74;100.00;99065.06;4977770;28;45574;-65
2023/10/25 05:33:19;;;;;;;;;1.00;1.00;;;;;16.75;100.00;99056.13;4974815;28;45383;-66
2023/10/25 05:35:45;;;;;;;;;2.00;1.00;;;;;16.80;100.00;99063.06;4977227;28;47462;-67
2023/10/25 05:38:10;;;;;;;;;0.00;0.00;;;;;16.80;100.00;99057.75;4976269;28;45415;-65
2023/10/25 05:40:36;;;;;;;;;2.33;1.00;;;;;16.84;100.00;99059.34;4977564;28;45547;-66
2023/10/25 05:43:02;;;;;;;;;1.00;1.00;;;;;16.81;100.00;99054.16;4978000;28;45668;-67
2023/10/25 05:45:28;;;;;;;;;1.00;1.00;;;;;16.82;100.00;99051.41;4977529;28;46798;-65
2023/10/25 05:47:54;;;;;;;;;0.67;0.67;;;;;16.84;100.00;99049.56;4977157;28;56860;-67
2023/10/25 05:50:20;;;;;;;;;3.33;1.00;;;;;16.86;100.00;99047.69;4977929;28;45558;-67
2023/10/25 05:52:46;;;;;;;;;1.00;1.00;;;;;16.89;100.00;99047.56;4977925;28;45568;-67
2023/10/25 05:55:14;;;;;;;;;1.00;1.00;;;;;17.01;100.00;99048.81;4977646;28;46548;-65
2023/10/25 05:57:40;;;;;;;;;3.33;1.00;;;;;17.03;100.00;99044.28;4977691;28;45380;-65
2023/10/25 06:00:06;;;;;;;;;1.00;1.00;;;;;17.06;100.00;99043.28;4977170;28;45369;-66
2023/10/25 06:02:33;;;;;;;;;1.00;1.00;;;;;17.06;100.00;99044.16;4978240;28;45573;-68
2023/10/25 06:05:00;;;;;;;;;1.00;1.00;;;;;17.11;100.00;99036.81;4977681;28;45983;-66
2023/10/25 06:07:25;;;;;;;;;1.00;1.00;;;;;17.14;100.00;99047.34;4977230;28;45516;-66
2023/10/25 06:09:51;;;;;;;;;1.00;1.00;;;;;17.15;100.00;99048.19;4977674;28;45185;-65
2023/10/25 06:12:17;;;;;;;;;3.00;2.00;;;;;17.14;100.00;99042.00;4977411;28;45173;-65
2023/10/25 06:14:42;;;;;;;;;1.00;1.00;;;;;17.15;100.00;99043.75;4976025;28;47691;-65
2023/10/25 06:17:07;;;;;;;;;2.00;1.00;;;;;17.15;100.00;99057.09;4977523;28;52698;-65
2023/10/25 06:19:33;;;;;;;;;1.33;1.33;;;;;17.15;100.00;99057.09;4977552;28;45411;-66
2023/10/25 06:21:58;;;;;;;;;1.33;1.00;;;;;17.14;100.00;99068.66;4977611;28;45674;-66
2023/10/25 06:24:24;;;;;;;;;3.00;1.00;;;;;17.16;100.00;99069.47;4975588;28;47528;-65
2023/10/25 06:26:49;;;;;;;;;3.00;2.00;;;;;17.18;100.00;99061.41;4976252;28;45593;-67
2023/10/25 06:29:15;;;;;;;;;1.33;1.00;;;;;17.17;100.00;99062.34;4971498;28;45587;-65
2023/10/25 06:31:40;;;;;;;;;1.67;1.00;;;;;17.17;100.00;99073.00;4977906;22;57244;-64
2023/10/25 06:34:06;;;;;;;;;1.00;1.00;;;;;17.21;100.00;99077.28;4976108;28;46743;-64
2023/10/25 06:36:34;;;;;;;;;1.00;1.00;;;;;17.21;100.00;99086.16;4975276;28;62631;-67
2023/10/25 06:39:04;;;;;;;;;1.33;1.00;;;;;17.20;100.00;99094.19;4958239;28;45300;-67
2023/10/25 06:41:30;;;;;;;;;1.00;1.00;;;;;17.12;100.00;99096.34;4959672;28;45526;-64
2023/10/25 06:43:56;;;;;;;;;1.33;1.33;;;;;17.10;100.00;99099.09;4973733;28;45684;-64
2023/10/25 06:46:21;;;;;;;;;0.00;0.00;;;;;17.10;100.00;99099.09;4975738;28;45323;-66
2023/10/25 06:48:47;;;;;;;;;2.00;0.00;;;;;17.12;100.00;99101.69;4974153;28;45363;-63
2023/10/25 06:51:14;;;;;;;;;0.00;0.00;;;;;17.08;100.00;99102.75;4958762;28;45494;-64
2023/10/25 06:53:39;;;;;;;;;0.00;0.00;;;;;17.09;100.00;99101.81;4958127;28;62098;-64
2023/10/25 06:56:05;;;;;;;;;0.67;0.33;;;;;17.08;100.00;99118.75;4975825;28;45227;-66
2023/10/25 06:58:31;;;;;;;;;0.00;0.00;;;;;17.04;100.00;99126.00;4975730;28;46207;-64
2023/10/25 07:00:57;;;;;;;;;3.00;0.00;;;;;17.06;100.00;99118.81;4975983;28;45304;-65
2023/10/25 07:03:36;;;;;;;;;0.00;0.00;;;;;17.06;100.00;99129.50;4959419;28;46504;-64
2023/10/25 07:06:03;;;;;;;;;0.00;0.00;;;;;17.00;100.00;99125.28;4957829;28;45562;-64
2023/10/25 07:08:29;;;;;;;;;3.00;0.00;;;;;16.96;100.00;99118.34;4975865;28;46035;-65
2023/10/25 07:10:55;;;;;;;;;0.00;0.00;;;;;16.90;100.00;99128.41;4958006;28;45730;-64
2023/10/25 07:13:20;;;;;;;;;0.00;0.00;;;;;16.90;100.00;99123.94;4957804;28;46379;-66
2023/10/25 07:15:47;;;;;;;;;1.00;0.00;;;;;16.90;100.00;99123.06;4975031;28;66047;-64
2023/10/25 07:18:12;;;;;;;;;2.00;0.00;;;;;16.91;100.00;99132.78;4975706;28;45496;-63
2023/10/25 07:20:37;;;;;;;;;1.00;1.00;;;;;16.91;100.00;99130.13;4975380;28;53220;-66
2023/10/25 07:23:04;;;;;;;;;0.00;0.00;;;;;16.91;100.00;99124.81;4956790;28;69112;-65
2023/10/25 07:25:30;;;;;;;;;0.00;0.00;;;;;16.97;100.00;99130.72;4975041;28;45525;-66
2023/10/25 07:27:55;;;;;;;;;0.00;0.00;;;;;17.00;100.00;99132.41;4974800;28;46638;-64
2023/10/25 07:30:21;;;;;;;;;0.00;0.00;;;;;17.02;100.00;99127.88;4975037;28;45560;-66
2023/10/25 07:32:46;;;;;;;;;0.67;0.67;;;;;17.08;100.00;99129.41;4973729;28;69733;-66
2023/10/25 07:35:11;;;;;;;;;0.00;0.00;;;;;17.12;100.00;99125.69;4974888;28;45388;-64
2023/10/25 07:37:37;;;;;;;;;0.00;0.00;;;;;17.15;100.00;99133.53;4973951;28;62746;-64
2023/10/25 07:40:05;;;;;;;;;0.00;0.00;;;;;17.17;100.00;99137.03;4973914;28;58743;-64
2023/10/25 07:42:31;;;;;;;;;0.00;0.00;;;;;17.22;100.00;99148.38;4974604;28;45901;-66
2023/10/25 07:44:57;;;;;;;;;0.00;0.00;;;;;17.26;100.00;99147.31;4957431;28;45371;-64
2023/10/25 07:47:23;;;;;;;;;0.00;0.00;;;;;17.23;100.00;99147.44;4970960;28;45442;-65
2023/10/25 07:49:49;;;;;;;;;0.00;0.00;;;;;17.22;100.00;99145.69;4954373;28;45554;-64
2023/10/25 07:52:15;;;;;;;;;0.33;0.00;;;;;17.19;100.00;99146.69;4973677;28;45776;-64
2023/10/25 07:54:40;;;;;;;;;1.67;1.67;;;;;17.21;100.00;99151.97;4970495;28;45451;-65
2023/10/25 07:57:06;;;;;;;;;1.00;0.00;;;;;17.19;100.00;99145.81;4964273;28;45468;-65
2023/10/25 07:59:31;;;;;;;;;0.00;0.00;;;;;17.14;100.00;99142.47;4962619;28;55601;-63
2023/10/25 08:01:57;;;;;;;;;1.00;0.00;;;;;17.17;100.00;99159.22;4963049;28;68665;-65
2023/10/25 08:04:22;;;;;;;;;0.67;0.00;;;;;17.14;100.00;99158.47;4967948;28;45525;-64
2023/10/25 08:06:47;;;;;;;;;0.67;0.67;;;;;17.17;100.00;99164.56;4970412;28;45336;-65
2023/10/25 08:09:13;;;;;;;;;0.00;0.00;;;;;17.17;100.00;99169.03;4970747;28;56723;-65
2023/10/25 08:11:38;;;;;;;;;0.33;0.00;;;;;17.14;100.00;99156.69;4956398;28;54405;-67
2023/10/25 08:14:04;;;;;;;;;0.00;0.00;;;;;17.14;100.00;99158.47;4974153;28;45530;-64
2023/10/25 08:16:29;;;;;;;;;0.00;0.00;;;;;17.10;100.00;99152.44;4974159;28;45549;-64
2023/10/25 08:18:54;;;;;;;;;0.00;0.00;;;;;17.12;100.00;99166.56;4974345;28;45478;-67
2023/10/25 08:21:20;;;;;;;;;1.00;1.00;;;;;17.17;100.00;99163.69;4973907;28;70584;-65
2023/10/25 08:23:46;;;;;;;;;0.33;0.00;;;;;17.18;100.00;99166.28;4978087;28;45415;-68
2023/10/25 08:26:11;;;;;;;;;0.00;0.00;;;;;17.18;100.00;99160.09;4976814;28;45585;-64
2023/10/25 08:28:37;;;;;;;;;0.00;0.00;;;;;17.18;100.00;99155.63;4975528;28;45374;-65
2023/10/25 08:31:16;;;;;;;;;0.00;0.00;;;;;17.16;100.00;99165.50;4977093;28;46092;-65
2023/10/25 08:33:42;;;;;;;;;0.00;0.00;;;;;17.21;100.00;99168.84;4977197;28;45547;-66
2023/10/25 08:36:07;;;;;;;;;0.33;0.33;;;;;17.20;100.00;99174.22;4965141;28;56254;-66
2023/10/25 08:38:34;;;;;;;;;1.00;1.00;;;;;17.20;100.00;99180.41;4966383;28;45501;-66
2023/10/25 08:41:06;;;;;;;;;0.00;0.00;;;;;17.21;100.00;99184.84;4974245;28;46432;-67
2023/10/25 08:43:33;;;;;;;;;1.00;1.00;;;;;17.18;100.00;99187.63;4977666;28;45450;-65
2023/10/25 08:45:58;;;;;;;;;0.00;0.00;;;;;17.20;100.00;99176.88;4977633;28;45519;-66
2023/10/25 08:48:25;;;;;;;;;1.00;1.00;;;;;17.19;100.00;99178.69;4977641;28;45622;-68
2023/10/25 08:50:50;;;;;;;;;1.67;1.00;;;;;17.19;100.00;99167.16;4977611;28;46786;-68
2023/10/25 08:53:22;;;;;;;;;0.00;0.00;;;;;17.25;100.00;99173.09;4976333;28;45605;-66
2023/10/25 08:55:50;;;;;;;;;1.00;1.00;;;;;17.29;100.00;99174.69;4975383;28;45586;-68
2023/10/25 08:58:17;;;;;;;;;0.00;0.00;;;;;17.29;100.00;99177.38;4958512;28;45463;-66
2023/10/25 09:00:42;;;;;;;;;0.00;0.00;;;;;17.30;100.00;99180.91;4977408;28;46422;-67
2023/10/25 09:03:07;;;;;;;;;0.00;0.00;;;;;17.26;100.00;99172.19;4959262;28;45462;-68
2023/10/25 09:05:39;;;;;;;;;2.00;0.00;;;;;17.29;100.00;99168.50;4977282;28;45786;-67
2023/10/25 09:08:14;;;;;;;;;0.00;0.00;;;;;17.32;100.00;99168.38;4977820;28;46443;-66
2023/10/25 09:10:40;;;;;;;;;2.00;0.00;;;;;17.34;100.00;99177.16;4976443;28;45902;-66
2023/10/25 09:13:12;;;;;;;;;0.00;0.00;;;;;17.33;100.00;99175.44;4977701;28;45254;-66
2023/10/25 09:15:37;;;;;;;;;1.00;0.00;;;;;17.34;100.00;99176.31;4978129;28;45360;-69
2023/10/25 09:18:03;;;;;;;;;0.00;0.00;;;;;17.37;100.00;99182.38;4977727;28;45433;-66
2023/10/25 09:20:28;;;;;;;;;1.33;0.00;;;;;17.34;100.00;99181.66;4978024;28;45523;-67
2023/10/25 09:23:09;;;;;;;;;0.00;0.00;;;;;17.36;100.00;99175.28;4977549;28;52801;-66
2023/10/25 09:25:37;;;;;;;;;1.00;1.00;;;;;17.33;100.00;99174.59;4977249;28;45585;-68
2023/10/25 09:28:03;;;;;;;;;1.33;0.00;;;;;17.29;100.00;99169.38;4976896;28;45444;-66
2023/10/25 09:30:29;;;;;;;;;1.00;1.00;;;;;17.33;100.00;99172.78;4959315;28;48408;-68
2023/10/25 09:32:55;;;;;;;;;0.00;0.00;;;;;17.38;100.00;99175.25;4960037;28;45672;-66
2023/10/25 09:35:20;;;;;;;;;0.00;0.00;;;;;17.36;100.00;99161.09;4959049;28;45369;-66
2023/10/25 09:37:46;;;;;;;;;2.00;0.00;;;;;17.35;100.00;99157.56;4977199;28;45451;-66
2023/10/25 09:40:13;;;;;;;;;0.00;0.00;;;;;17.35;100.00;99168.22;4976947;28;45432;-66
2023/10/25 09:42:48;;;;;;;;;0.00;0.00;;;;;17.39;100.00;99167.16;4977295;28;45376;-68
2023/10/25 09:45:18;;;;;;;;;0.00;0.00;;;;;17.49;100.00;99164.97;4959425;28;45387;-66
2023/10/25 09:47:46;;;;;;;;;0.00;0.00;;;;;17.56;100.00;99171.75;4958990;28;45458;-65
2023/10/25 09:50:21;;;;;;;;;0.00;0.00;;;;;17.62;100.00;99166.16;4976702;28;46374;-65
2023/10/25 09:52:49;;;;;;;;;1.00;1.00;;;;;17.63;100.00;99173.25;4959452;28;45571;-66
2023/10/25 09:55:24;;;;;;;;;2.00;1.00;;;;;17.60;100.00;99172.50;4959581;28;45462;-66
2023/10/25 09:57:53;;;;;;;;;1.00;1.00;;;;;17.58;100.00;99179.69;4976556;28;46077;-67
2023/10/25 10:00:19;;;;;;;;;1.00;1.00;;;;;17.53;100.00;99170.13;4960410;28;45680;-67
2023/10/25 10:03:03;;;;;;;;;2.00;2.00;;;;;17.48;100.00;99168.59;4958750;28;45809;-67
2023/10/25 10:05:43;;;;;;;;;2.00;1.00;;;;;17.52;100.00;99167.50;4976948;28;45392;-67
2023/10/25 10:08:15;;;;;;;;;3.67;1.00;;;;;17.51;100.00;99161.28;4954810;28;45626;-66
2023/10/25 10:10:52;;;;;;;;;1.67;1.67;;;;;17.56;100.00;99161.09;4976393;28;46828;-67
2023/10/25 10:13:21;;;;;;;;;3.00;3.00;;;;;17.62;100.00;99166.16;4976590;28;45463;-66
2023/10/25 10:16:09;;;;;;;;;4.00;2.00;;;;;17.74;100.00;99160.31;4976867;28;45435;-67
2023/10/25 10:18:36;;;;;;;;;2.33;2.33;;;;;17.90;100.00;99160.50;4975829;28;45458;-65
2023/10/25 10:21:07;;;;;;;;;3.33;2.33;;;;;17.99;100.00;99170.72;4976335;28;45431;-66
2023/10/25 10:23:49;;;;;;;;;5.00;2.00;;;;;18.00;100.00;99161.81;4976057;28;45481;-66
2023/10/25 10:26:43;;;;;;;;;1.67;1.67;;;;;17.98;100.00;99154.78;4959028;28;45525;-65
2023/10/25 10:29:41;;;;;;;;;1.00;1.00;;;;;17.96;100.00;99162.88;4974386;28;45534;-66
2023/10/25 10:32:07;;;;;;;;;1.00;1.00;;;;;17.97;100.00;99158.41;4936429;28;45944;-67
2023/10/25 10:34:47;;;;;;;;;1.33;1.00;;;;;18.00;100.00;99167.16;4975613;28;46058;-65
2023/10/25 10:37:13;;;;;;;;;2.00;1.00;;;;;18.05;100.00;99157.09;4973940;28;45534;-66
2023/10/25 10:39:59;;;;;;;;;1.33;1.00;;;;;18.06;100.00;99164.19;4976100;28;45371;-66
2023/10/25 10:42:33;;;;;;;;;2.00;2.00;;;;;18.08;100.00;99179.28;4975507;28;45703;-66
2023/10/25 10:45:04;;;;;;;;;2.00;2.00;;;;;18.04;100.00;99165.19;4957895;28;45419;-68
2023/10/25 10:47:38;;;;;;;;;1.00;1.00;;;;;17.94;100.00;99156.72;4975651;28;45408;-66
2023/10/25 10:50:14;;;;;;;;;2.00;2.00;;;;;17.93;100.00;99165.66;4958907;28;45327;-66
2023/10/25 10:52:40;;;;;;;;;1.00;1.00;;;;;17.86;100.00;99169.56;4957760;28;46925;-65
2023/10/25 10:55:07;;;;;;;;;1.00;1.00;;;;;17.78;100.00;99164.56;4975426;28;45301;-65
2023/10/25 10:57:33;;;;;;;;;2.00;2.00;;;;;17.72;100.00;99175.50;4975303;28;45542;-66
2023/10/25 10:59:59;;;;;;;;;2.00;2.00;;;;;17.68;100.00;99181.88;4959128;28;45641;-66
2023/10/25 11:02:25;;;;;;;;;1.33;1.33;;;;;17.63;100.00;99183.94;4957885;28;45555;-65
2023/10/25 11:04:50;;;;;;;;;1.67;1.00;;;;;17.54;100.00;99200.34;4975099;28;45399;-66
2023/10/25 11:07:17;;;;;;;;;2.00;2.00;;;;;17.48;100.00;99200.59;4975808;28;47237;-68
2023/10/25 11:09:43;;;;;;;;;1.00;1.00;;;;;17.43;100.00;99190.13;4958110;28;45915;-69
2023/10/25 11:12:14;;;;;;;;;2.00;2.00;;;;;17.40;100.00;99189.38;4975773;28;45899;-65
2023/10/25 11:14:44;;;;;;;;;2.00;1.00;;;;;17.39;100.00;99190.31;4960951;28;45464;-65
2023/10/25 11:17:10;;;;;;;;;2.00;2.00;;;;;17.37;100.00;99195.72;4974268;28;45503;-67
2023/10/25 11:19:35;;;;;;;;;4.00;3.00;;;;;17.39;100.00;99185.84;4970544;28;45613;-67
2023/10/25 11:22:01;;;;;;;;;2.00;2.00;;;;;17.42;100.00;99195.53;4946868;28;46432;-66
2023/10/25 11:24:26;;;;;;;;;3.00;3.00;;;;;17.39;100.00;99199.19;4974371;28;63647;-65